This is the latest recevied weather packets stored in our database for station/object WB4ZUT. If no packets are shown the sender has not sent any weather packets the latest 10 day(s).
| Time | Temp. | Humidity | Pressure | Rain* | Wind** | Luminosity | Snow |
|---|---|---|---|---|---|---|---|
| 1777922586 | 26.67° C | 46% | 1007.6 hPa | 0 mm | - | 517 W/m² | - |
| 1777922285 | 26.11° C | 47% | 1007.5 hPa | 0 mm | - | 619 W/m² | - |
| 1777921982 | 26.11° C | 47% | 1008 hPa | 0 mm | - | 519 W/m² | - |
| 1777921677 | 26.11° C | 47% | 1008 hPa | 0 mm | - | 465 W/m² | - |
| 1777921373 | 26.11° C | 48% | 1007.9 hPa | 0 mm | - | 440 W/m² | - |
| 1777921070 | 26.11° C | 48% | 1008.2 hPa | 0 mm | - | 498 W/m² | - |
| 1777920767 | 26.11° C | 47% | 1008.1 hPa | 0 mm | - | 546 W/m² | - |
| 1777920463 | 26.11° C | 48% | 1008.1 hPa | 0 mm | - | 484 W/m² | - |
| 1777920159 | 26.11° C | 47% | 1008.2 hPa | 0 mm | - | 506 W/m² | - |
| 1777919855 | 25.56° C | 49% | 1008.4 hPa | 0 mm | - | 449 W/m² | - |
| 1777919552 | 26.11° C | 48% | 1008.4 hPa | 0 mm | - | 519 W/m² | - |
| 1777919250 | 26.11° C | 48% | 1008.5 hPa | 0 mm | - | 512 W/m² | - |
| 1777918947 | 26.67° C | 47% | 1008.2 hPa | 0 mm | - | 679 W/m² | - |
| 1777918645 | 26.11° C | 48% | 1008.4 hPa | 0 mm | - | 649 W/m² | - |
| 1777918342 | 26.11° C | 48% | 1008.7 hPa | 0 mm | - | 596 W/m² | - |
| 1777918041 | 26.67° C | 46% | 1008.5 hPa | 0 mm | - | 724 W/m² | - |
| 1777917739 | 26.11° C | 47% | 1008.6 hPa | 0 mm | - | 800 W/m² | - |
| 1777917436 | 26.11° C | 49% | 1008.7 hPa | 0 mm | - | 744 W/m² | - |
| 1777917133 | 26.67° C | 53% | 1008.8 hPa | 0 mm | - | 734 W/m² | - |
| 1777916831 | 25.56° C | 49% | 1008.6 hPa | 0 mm | - | 699 W/m² | - |
| 1777916529 | 26.11° C | 51% | 1008.9 hPa | 0 mm | - | 610 W/m² | - |
| 1777916225 | 26.11° C | 50% | 1008.7 hPa | 0 mm | - | 737 W/m² | - |
| 1777915922 | 25.56° C | 50% | 1008.7 hPa | 0 mm | - | 721 W/m² | - |
| 1777915619 | 25.56° C | 52% | 1008.8 hPa | 0 mm | - | 640 W/m² | - |
| 1777915315 | 25.56° C | 54% | 1008.9 hPa | 0 mm | - | 752 W/m² | - |
* Rain latest hour (hover to see other rain measurements)
** Current wind speed in m/s (hover to see current wind gust speed)